sensor_id;sensor_type;location;lat;lon;timestamp;pressure;altitude;pressure_sealevel;temperature;humidity
59106;BME280;44891;50.204;8.132;2023-04-16T00:03:44;98374.66;;;7.75;100.00
59106;BME280;44891;50.204;8.132;2023-04-16T00:07:46;98373.69;;;7.69;100.00
59106;BME280;44891;50.204;8.132;2023-04-16T00:11:48;98373.78;;;7.81;100.00
59106;BME280;44891;50.204;8.132;2023-04-16T00:15:51;98371.41;;;7.79;100.00
59106;BME280;44891;50.204;8.132;2023-04-16T00:19:53;98377.69;;;7.72;100.00
59106;BME280;44891;50.204;8.132;2023-04-16T00:23:55;98375.38;;;7.82;100.00
59106;BME280;44891;50.204;8.132;2023-04-16T00:27:57;98291.44;;;7.28;100.00
59106;BME280;44891;50.204;8.132;2023-04-16T00:32:00;98378.00;;;7.82;100.00
59106;BME280;44891;50.204;8.132;2023-04-16T00:36:02;98376.75;;;7.84;100.00
59106;BME280;44891;50.204;8.132;2023-04-16T00:40:04;98375.63;;;7.80;100.00
59106;BME280;44891;50.204;8.132;2023-04-16T00:44:06;98375.88;;;7.72;100.00
59106;BME280;44891;50.204;8.132;2023-04-16T00:48:11;98382.72;;;7.73;100.00
59106;BME280;44891;50.204;8.132;2023-04-16T00:52:13;98383.56;;;7.67;100.00
59106;BME280;44891;50.204;8.132;2023-04-16T00:56:15;98389.00;;;7.66;100.00
59106;BME280;44891;50.204;8.132;2023-04-16T01:00:19;98390.00;;;7.64;100.00
59106;BME280;44891;50.204;8.132;2023-04-16T01:04:22;98393.44;;;7.65;100.00
59106;BME280;44891;50.204;8.132;2023-04-16T01:08:24;98386.31;;;7.72;100.00
59106;BME280;44891;50.204;8.132;2023-04-16T01:12:26;98388.19;;;7.65;100.00
59106;BME280;44891;50.204;8.132;2023-04-16T01:16:28;98400.91;;;7.61;100.00
59106;BME280;44891;50.204;8.132;2023-04-16T01:20:34;98400.97;;;7.55;100.00
59106;BME280;44891;50.204;8.132;2023-04-16T01:24:37;98404.44;;;7.49;100.00
59106;BME280;44891;50.204;8.132;2023-04-16T01:28:40;98405.41;;;7.54;100.00
59106;BME280;44891;50.204;8.132;2023-04-16T01:32:41;98400.69;;;7.63;100.00
59106;BME280;44891;50.204;8.132;2023-04-16T01:36:45;98400.75;;;7.56;100.00
59106;BME280;44891;50.204;8.132;2023-04-16T01:40:47;98399.16;;;7.55;100.00
59106;BME280;44891;50.204;8.132;2023-04-16T01:44:48;98399.16;;;7.55;100.00
59106;BME280;44891;50.204;8.132;2023-04-16T01:48:50;98406.94;;;7.62;100.00
59106;BME280;44891;50.204;8.132;2023-04-16T01:52:55;98412.56;;;7.59;100.00
59106;BME280;44891;50.204;8.132;2023-04-16T01:56:57;98413.53;;;7.64;100.00
59106;BME280;44891;50.204;8.132;2023-04-16T02:00:59;98410.97;;;7.58;100.00
59106;BME280;44891;50.204;8.132;2023-04-16T02:05:01;98416.88;;;7.53;100.00
59106;BME280;44891;50.204;8.132;2023-04-16T02:09:04;98410.06;;;7.46;100.00
59106;BME280;44891;50.204;8.132;2023-04-16T02:13:06;98416.91;;;7.47;100.00
59106;BME280;44891;50.204;8.132;2023-04-16T02:17:08;98419.72;;;7.45;100.00
59106;BME280;44891;50.204;8.132;2023-04-16T02:21:12;98415.28;;;7.46;100.00
59106;BME280;44891;50.204;8.132;2023-04-16T02:25:15;98413.06;;;7.49;100.00
59106;BME280;44891;50.204;8.132;2023-04-16T02:29:17;98416.69;;;7.48;100.00
59106;BME280;44891;50.204;8.132;2023-04-16T02:33:26;98407.25;;;7.47;100.00
59106;BME280;44891;50.204;8.132;2023-04-16T02:37:33;98414.34;;;7.40;100.00
59106;BME280;44891;50.204;8.132;2023-04-16T02:41:37;98413.91;;;7.43;100.00
59106;BME280;44891;50.204;8.132;2023-04-16T02:45:39;98411.88;;;7.45;100.00
59106;BME280;44891;50.204;8.132;2023-04-16T02:49:41;98404.75;;;7.34;100.00
59106;BME280;44891;50.204;8.132;2023-04-16T02:53:42;98400.69;;;7.38;100.00
59106;BME280;44891;50.204;8.132;2023-04-16T02:57:47;98402.88;;;7.41;100.00
59106;BME280;44891;50.204;8.132;2023-04-16T03:01:49;98397.22;;;7.44;100.00
59106;BME280;44891;50.204;8.132;2023-04-16T03:05:51;98396.63;;;7.42;100.00
59106;BME280;44891;50.204;8.132;2023-04-16T03:09:53;98395.78;;;7.48;100.00
59106;BME280;44891;50.204;8.132;2023-04-16T03:13:56;98393.59;;;7.45;100.00
59106;BME280;44891;50.204;8.132;2023-04-16T03:17:58;98386.94;;;7.49;100.00
59106;BME280;44891;50.204;8.132;2023-04-16T03:22:00;98387.94;;;7.48;100.00
59106;BME280;44891;50.204;8.132;2023-04-16T03:26:02;98384.91;;;7.51;100.00
59106;BME280;44891;50.204;8.132;2023-04-16T03:30:06;98400.06;;;7.43;100.00
59106;BME280;44891;50.204;8.132;2023-04-16T03:34:09;98402.66;;;7.43;100.00
59106;BME280;44891;50.204;8.132;2023-04-16T03:38:13;98400.22;;;7.48;100.00
59106;BME280;44891;50.204;8.132;2023-04-16T03:42:15;98402.44;;;7.44;100.00
59106;BME280;44891;50.204;8.132;2023-04-16T03:46:19;98407.91;;;7.43;100.00
59106;BME280;44891;50.204;8.132;2023-04-16T03:50:21;98414.34;;;7.40;100.00
59106;BME280;44891;50.204;8.132;2023-04-16T03:54:24;98395.47;;;7.38;100.00
59106;BME280;44891;50.204;8.132;2023-04-16T03:58:37;98399.47;;;7.41;100.00
59106;BME280;44891;50.204;8.132;2023-04-16T04:02:43;98404.75;;;7.34;100.00
59106;BME280;44891;50.204;8.132;2023-04-16T04:06:52;98404.94;;;7.32;100.00
59106;BME280;44891;50.204;8.132;2023-04-16T04:10:54;98405.59;;;7.28;100.00
59106;BME280;44891;50.204;8.132;2023-04-16T04:14:58;98412.25;;;7.24;100.00
59106;BME280;44891;50.204;8.132;2023-04-16T04:19:02;98404.56;;;7.29;100.00
59106;BME280;44891;50.204;8.132;2023-04-16T04:23:04;98406.00;;;7.25;100.00
59106;BME280;44891;50.204;8.132;2023-04-16T04:27:07;98418.69;;;7.21;100.00
59106;BME280;44891;50.204;8.132;2023-04-16T04:31:09;98424.50;;;7.23;100.00
59106;BME280;44891;50.204;8.132;2023-04-16T04:35:13;98425.47;;;7.29;100.00
59106;BME280;44891;50.204;8.132;2023-04-16T04:39:15;98420.03;;;7.30;100.00
59106;BME280;44891;50.204;8.132;2023-04-16T04:43:17;98426.22;;;7.36;100.00
59106;BME280;44891;50.204;8.132;2023-04-16T04:47:19;98443.28;;;7.39;100.00
59106;BME280;44891;50.204;8.132;2023-04-16T04:51:23;98443.72;;;7.35;100.00
59106;BME280;44891;50.204;8.132;2023-04-16T04:55:26;98440.94;;;7.30;100.00
59106;BME280;44891;50.204;8.132;2023-04-16T04:59:28;98453.81;;;7.25;100.00
59106;BME280;44891;50.204;8.132;2023-04-16T05:03:30;98453.63;;;7.27;100.00
59106;BME280;44891;50.204;8.132;2023-04-16T05:07:34;98465.91;;;7.26;100.00
59106;BME280;44891;50.204;8.132;2023-04-16T05:11:36;98470.50;;;7.24;100.00
59106;BME280;44891;50.204;8.132;2023-04-16T05:15:38;98471.13;;;7.26;100.00
59106;BME280;44891;50.204;8.132;2023-04-16T05:19:40;98479.94;;;7.25;100.00
59106;BME280;44891;50.204;8.132;2023-04-16T05:23:43;98486.00;;;7.19;100.00
59106;BME280;44891;50.204;8.132;2023-04-16T05:27:46;98482.97;;;7.22;100.00
59106;BME280;44891;50.204;8.132;2023-04-16T05:31:48;98483.19;;;7.21;100.00
59106;BME280;44891;50.204;8.132;2023-04-16T05:35:50;98492.81;;;7.27;100.00
59106;BME280;44891;50.204;8.132;2023-04-16T05:39:54;98486.94;;;7.31;100.00
59106;BME280;44891;50.204;8.132;2023-04-16T05:43:55;98488.13;;;7.35;100.00
59106;BME280;44891;50.204;8.132;2023-04-16T05:47:57;98503.38;;;7.39;100.00
59106;BME280;44891;50.204;8.132;2023-04-16T05:52:00;98502.00;;;7.36;100.00
59106;BME280;44891;50.204;8.132;2023-04-16T05:56:04;98510.22;;;7.40;100.00
59106;BME280;44891;50.204;8.132;2023-04-16T06:00:07;98510.22;;;7.40;100.00
59106;BME280;44891;50.204;8.132;2023-04-16T06:04:15;98512.22;;;7.38;100.00
59106;BME280;44891;50.204;8.132;2023-04-16T06:08:16;98517.66;;;7.36;100.00
59106;BME280;44891;50.204;8.132;2023-04-16T06:12:20;98516.84;;;7.42;100.00
59106;BME280;44891;50.204;8.132;2023-04-16T06:16:22;98518.81;;;7.47;100.00
59106;BME280;44891;50.204;8.132;2023-04-16T06:20:24;98518.88;;;7.40;100.00
59106;BME280;44891;50.204;8.132;2023-04-16T06:24:27;98528.09;;;7.43;100.00
59106;BME280;44891;50.204;8.132;2023-04-16T06:28:31;98522.63;;;7.44;100.00
59106;BME280;44891;50.204;8.132;2023-04-16T06:32:33;98532.66;;;7.54;100.00
59106;BME280;44891;50.204;8.132;2023-04-16T06:36:34;98526.41;;;7.55;100.00
59106;BME280;44891;50.204;8.132;2023-04-16T06:40:37;98535.50;;;7.46;100.00
59106;BME280;44891;50.204;8.132;2023-04-16T06:44:40;98539.88;;;7.52;100.00
59106;BME280;44891;50.204;8.132;2023-04-16T06:48:42;98536.91;;;7.48;100.00
59106;BME280;44891;50.204;8.132;2023-04-16T06:52:44;98542.50;;;7.52;100.00
59106;BME280;44891;50.204;8.132;2023-04-16T06:56:46;98547.72;;;7.52;100.00
59106;BME280;44891;50.204;8.132;2023-04-16T07:00:49;98546.88;;;7.58;100.00
59106;BME280;44891;50.204;8.132;2023-04-16T07:04:51;98552.50;;;7.61;100.00
59106;BME280;44891;50.204;8.132;2023-04-16T07:08:53;98548.41;;;7.72;100.00
59106;BME280;44891;50.204;8.132;2023-04-16T07:12:54;98550.88;;;7.67;100.00
59106;BME280;44891;50.204;8.132;2023-04-16T07:17:02;98551.28;;;7.64;100.00
59106;BME280;44891;50.204;8.132;2023-04-16T07:21:04;98554.69;;;7.64;100.00
59106;BME280;44891;50.204;8.132;2023-04-16T07:25:06;98550.06;;;7.67;100.00
59106;BME280;44891;50.204;8.132;2023-04-16T07:29:08;98546.81;;;7.71;100.00
59106;BME280;44891;50.204;8.132;2023-04-16T07:33:11;98548.34;;;7.79;100.00
59106;BME280;44891;50.204;8.132;2023-04-16T07:37:13;98547.94;;;7.82;100.00
59106;BME280;44891;50.204;8.132;2023-04-16T07:41:15;98551.75;;;7.86;100.00
59106;BME280;44891;50.204;8.132;2023-04-16T07:45:17;98553.34;;;7.87;100.00
59106;BME280;44891;50.204;8.132;2023-04-16T07:49:20;98560.41;;;7.86;100.00
59106;BME280;44891;50.204;8.132;2023-04-16T07:53:22;98569.53;;;8.02;100.00
59106;BME280;44891;50.204;8.132;2023-04-16T07:57:24;98566.13;;;8.02;100.00
59106;BME280;44891;50.204;8.132;2023-04-16T08:01:25;98569.69;;;8.07;100.00
59106;BME280;44891;50.204;8.132;2023-04-16T08:05:28;98587.25;;;8.00;100.00
59106;BME280;44891;50.204;8.132;2023-04-16T08:09:30;98581.41;;;7.98;100.00
59106;BME280;44891;50.204;8.132;2023-04-16T08:13:32;98587.44;;;7.99;100.00
59106;BME280;44891;50.204;8.132;2023-04-16T08:17:34;98587.25;;;8.00;100.00
59106;BME280;44891;50.204;8.132;2023-04-16T08:21:38;98586.56;;;8.11;100.00
59106;BME280;44891;50.204;8.132;2023-04-16T08:25:40;98598.03;;;8.10;100.00
59106;BME280;44891;50.204;8.132;2023-04-16T08:29:42;98601.50;;;8.04;100.00
59106;BME280;44891;50.204;8.132;2023-04-16T08:33:44;98601.72;;;8.03;100.00
59106;BME280;44891;50.204;8.132;2023-04-16T08:37:47;98573.66;;;7.85;100.00
59106;BME280;44891;50.204;8.132;2023-04-16T08:41:49;98616.06;;;8.18;100.00
59106;BME280;44891;50.204;8.132;2023-04-16T08:45:52;98615.03;;;8.26;100.00
59106;BME280;44891;50.204;8.132;2023-04-16T08:49:55;98616.06;;;8.18;100.00
59106;BME280;44891;50.204;8.132;2023-04-16T08:54:02;98614.38;;;8.31;100.00
59106;BME280;44891;50.204;8.132;2023-04-16T08:58:07;98618.00;;;8.36;100.00
59106;BME280;44891;50.204;8.132;2023-04-16T09:02:10;98621.53;;;8.49;100.00
59106;BME280;44891;50.204;8.132;2023-04-16T09:06:12;98629.00;;;8.45;100.00
59106;BME280;44891;50.204;8.132;2023-04-16T09:10:16;98622.16;;;8.44;100.00
59106;BME280;44891;50.204;8.132;2023-04-16T09:14:19;98633.81;;;8.48;100.00
59106;BME280;44891;50.204;8.132;2023-04-16T09:18:21;98631.78;;;8.50;100.00
59106;BME280;44891;50.204;8.132;2023-04-16T09:22:23;98636.59;;;8.53;100.00
59106;BME280;44891;50.204;8.132;2023-04-16T09:26:26;98637.63;;;8.52;100.00
59106;BME280;44891;50.204;8.132;2023-04-16T09:30:28;98648.91;;;8.71;100.00
59106;BME280;44891;50.204;8.132;2023-04-16T09:34:30;98647.84;;;8.79;100.00
59106;BME280;44891;50.204;8.132;2023-04-16T09:38:45;98653.72;;;8.99;100.00
59106;BME280;44891;50.204;8.132;2023-04-16T09:42:48;98655.72;;;8.97;100.00
59106;BME280;44891;50.204;8.132;2023-04-16T09:46:50;98656.97;;;8.94;100.00
59106;BME280;44891;50.204;8.132;2023-04-16T09:50:52;98663.13;;;8.82;100.00
59106;BME280;44891;50.204;8.132;2023-04-16T09:54:54;98664.22;;;8.74;100.00
59106;BME280;44891;50.204;8.132;2023-04-16T09:58:58;98659.72;;;8.81;100.00
59106;BME280;44891;50.204;8.132;2023-04-16T10:03:03;98667.34;;;8.83;100.00
59106;BME280;44891;50.204;8.132;2023-04-16T10:07:06;98679.06;;;8.80;100.00
59106;BME280;44891;50.204;8.132;2023-04-16T10:11:08;98675.16;;;8.64;100.00
59106;BME280;44891;50.204;8.132;2023-04-16T10:15:11;98680.44;;;8.58;100.00
59106;BME280;44891;50.204;8.132;2023-04-16T10:19:13;98680.59;;;8.63;100.00
59106;BME280;44891;50.204;8.132;2023-04-16T10:23:15;98691.88;;;8.63;100.00
59106;BME280;44891;50.204;8.132;2023-04-16T10:27:17;98690.75;;;8.78;100.00
59106;BME280;44891;50.204;8.132;2023-04-16T10:31:20;98697.41;;;8.80;100.00
59106;BME280;44891;50.204;8.132;2023-04-16T10:35:24;98690.91;;;8.83;100.00
59106;BME280;44891;50.204;8.132;2023-04-16T10:39:26;98690.00;;;8.95;100.00
59106;BME280;44891;50.204;8.132;2023-04-16T10:43:28;98698.38;;;9.04;100.00
59106;BME280;44891;50.204;8.132;2023-04-16T10:47:32;98696.88;;;9.15;100.00
59106;BME280;44891;50.204;8.132;2023-04-16T10:51:40;98688.16;;;9.21;100.00
59106;BME280;44891;50.204;8.132;2023-04-16T10:55:54;98688.66;;;9.30;100.00
59106;BME280;44891;50.204;8.132;2023-04-16T10:59:56;98692.72;;;9.44;100.00
59106;BME280;44891;50.204;8.132;2023-04-16T11:04:00;98690.34;;;9.42;100.00
59106;BME280;44891;50.204;8.132;2023-04-16T11:08:10;98697.78;;;9.45;100.00
59106;BME280;44891;50.204;8.132;2023-04-16T11:12:14;98688.59;;;9.54;100.00
59106;BME280;44891;50.204;8.132;2023-04-16T11:16:17;98688.63;;;9.85;100.00
59106;BME280;44891;50.204;8.132;2023-04-16T11:20:21;98692.13;;;10.08;98.98
59106;BME280;44891;50.204;8.132;2023-04-16T11:24:27;98687.25;;;10.30;97.85
59106;BME280;44891;50.204;8.132;2023-04-16T11:28:32;98683.63;;;10.55;95.70
59106;BME280;44891;50.204;8.132;2023-04-16T11:32:35;98685.56;;;10.48;94.34
59106;BME280;44891;50.204;8.132;2023-04-16T11:36:43;98693.34;;;10.66;92.17
59106;BME280;44891;50.204;8.132;2023-04-16T11:40:45;98652.09;;;10.31;92.91
59106;BME280;44891;50.204;8.132;2023-04-16T11:44:54;98690.00;;;10.47;91.23
59106;BME280;44891;50.204;8.132;2023-04-16T11:48:56;98691.28;;;10.56;89.79
59106;BME280;44891;50.204;8.132;2023-04-16T11:53:03;98697.56;;;10.67;89.58
59106;BME280;44891;50.204;8.132;2023-04-16T11:57:05;98688.78;;;10.50;89.61
59106;BME280;44891;50.204;8.132;2023-04-16T12:01:07;98697.53;;;10.44;89.42
59106;BME280;44891;50.204;8.132;2023-04-16T12:05:25;98691.66;;;10.83;88.43
59106;BME280;44891;50.204;8.132;2023-04-16T12:09:29;98685.78;;;11.40;86.41
59106;BME280;44891;50.204;8.132;2023-04-16T12:13:31;98691.78;;;11.76;84.47
59106;BME280;44891;50.204;8.132;2023-04-16T12:17:39;98700.78;;;11.39;84.11
59106;BME280;44891;50.204;8.132;2023-04-16T12:21:41;98694.03;;;11.32;83.36
59106;BME280;44891;50.204;8.132;2023-04-16T12:25:45;98697.72;;;11.19;84.29
59106;BME280;44891;50.204;8.132;2023-04-16T12:30:01;98694.41;;;11.12;84.25
59106;BME280;44891;50.204;8.132;2023-04-16T12:34:03;98699.97;;;11.27;83.75
59106;BME280;44891;50.204;8.132;2023-04-16T12:38:05;98691.41;;;11.08;84.46
59106;BME280;44891;50.204;8.132;2023-04-16T12:42:08;98699.78;;;11.17;82.86
59106;BME280;44891;50.204;8.132;2023-04-16T12:46:12;98700.91;;;11.21;81.66
59106;BME280;44891;50.204;8.132;2023-04-16T12:50:14;98701.56;;;11.52;81.08
59106;BME280;44891;50.204;8.132;2023-04-16T12:54:15;98701.84;;;11.79;79.79
59106;BME280;44891;50.204;8.132;2023-04-16T12:58:19;98699.41;;;12.63;76.25
59106;BME280;44891;50.204;8.132;2023-04-16T13:02:20;98701.22;;;12.45;73.92
59106;BME280;44891;50.204;8.132;2023-04-16T13:06:22;98696.19;;;12.61;72.43
59106;BME280;44891;50.204;8.132;2023-04-16T13:10:24;98699.09;;;12.59;70.51
59106;BME280;44891;50.204;8.132;2023-04-16T13:14:28;98702.31;;;12.33;72.38
59106;BME280;44891;50.204;8.132;2023-04-16T13:18:30;98701.22;;;12.45;70.74
59106;BME280;44891;50.204;8.132;2023-04-16T13:22:32;98700.81;;;12.08;71.31
59106;BME280;44891;50.204;8.132;2023-04-16T13:26:34;98703.81;;;11.83;72.51
59106;BME280;44891;50.204;8.132;2023-04-16T13:30:37;98703.13;;;11.76;70.73
59106;BME280;44891;50.204;8.132;2023-04-16T13:34:39;98695.66;;;11.85;68.90
59106;BME280;44891;50.204;8.132;2023-04-16T13:38:41;98697.50;;;11.84;70.27
59106;BME280;44891;50.204;8.132;2023-04-16T13:42:43;98702.63;;;11.79;70.27
59106;BME280;44891;50.204;8.132;2023-04-16T13:46:46;98707.72;;;11.57;73.57
59106;BME280;44891;50.204;8.132;2023-04-16T13:50:48;98703.38;;;11.51;73.76
59106;BME280;44891;50.204;8.132;2023-04-16T13:54:50;98706.88;;;11.68;72.54
59106;BME280;44891;50.204;8.132;2023-04-16T13:58:56;98709.19;;;11.65;74.33
59106;BME280;44891;50.204;8.132;2023-04-16T14:03:00;98709.47;;;11.80;72.77
59106;BME280;44891;50.204;8.132;2023-04-16T14:07:01;98708.38;;;12.33;69.63
59106;BME280;44891;50.204;8.132;2023-04-16T14:11:03;98702.59;;;12.65;67.25
59106;BME280;44891;50.204;8.132;2023-04-16T14:15:06;98702.28;;;14.21;62.68
59106;BME280;44891;50.204;8.132;2023-04-16T14:19:10;98708.16;;;14.28;60.38
59106;BME280;44891;50.204;8.132;2023-04-16T14:23:12;98704.91;;;13.72;63.17
59106;BME280;44891;50.204;8.132;2023-04-16T14:27:14;98713.88;;;13.27;64.85
59106;BME280;44891;50.204;8.132;2023-04-16T14:31:16;98706.75;;;12.61;66.70
59106;BME280;44891;50.204;8.132;2023-04-16T14:35:20;98709.56;;;12.71;66.12
59106;BME280;44891;50.204;8.132;2023-04-16T14:39:22;98716.22;;;13.12;64.70
59106;BME280;44891;50.204;8.132;2023-04-16T14:43:24;98710.44;;;12.76;66.34
59106;BME280;44891;50.204;8.132;2023-04-16T14:47:26;98709.72;;;12.64;66.86
59106;BME280;44891;50.204;8.132;2023-04-16T14:51:29;98712.09;;;12.66;67.06
59106;BME280;44891;50.204;8.132;2023-04-16T14:55:32;98710.34;;;12.88;65.84
59106;BME280;44891;50.204;8.132;2023-04-16T14:59:33;98717.47;;;12.71;65.96
59106;BME280;44891;50.204;8.132;2023-04-16T15:03:36;98715.84;;;12.36;67.50
59106;BME280;44891;50.204;8.132;2023-04-16T15:07:39;98714.78;;;12.37;67.26
59106;BME280;44891;50.204;8.132;2023-04-16T15:11:41;98719.31;;;12.25;67.27
59106;BME280;44891;50.204;8.132;2023-04-16T15:15:43;98721.19;;;12.13;68.00
59106;BME280;44891;50.204;8.132;2023-04-16T15:19:45;98713.94;;;12.20;67.69
59106;BME280;44891;50.204;8.132;2023-04-16T15:23:48;98712.72;;;12.39;66.97
59106;BME280;44891;50.204;8.132;2023-04-16T15:27:50;98717.69;;;12.52;65.85
59106;BME280;44891;50.204;8.132;2023-04-16T15:31:52;98720.22;;;12.47;66.77
59106;BME280;44891;50.204;8.132;2023-04-16T15:35:54;98721.34;;;12.35;66.56
59106;BME280;44891;50.204;8.132;2023-04-16T15:39:57;98720.75;;;12.33;66.70
59106;BME280;44891;50.204;8.132;2023-04-16T15:43:59;98729.06;;;12.24;67.31
59106;BME280;44891;50.204;8.132;2023-04-16T15:48:00;98730.13;;;12.12;68.04
59106;BME280;44891;50.204;8.132;2023-04-16T15:52:04;98730.63;;;12.09;67.59
59106;BME280;44891;50.204;8.132;2023-04-16T15:56:08;98735.59;;;11.82;69.37
59106;BME280;44891;50.204;8.132;2023-04-16T16:00:10;98732.88;;;11.53;70.80
59106;BME280;44891;50.204;8.132;2023-04-16T16:04:14;98732.69;;;11.43;71.90
59106;BME280;44891;50.204;8.132;2023-04-16T16:08:16;98744.56;;;11.34;72.13
59106;BME280;44891;50.204;8.132;2023-04-16T16:12:19;98736.69;;;11.22;73.30
59106;BME280;44891;50.204;8.132;2023-04-16T16:16:21;98743.56;;;11.23;73.39
59106;BME280;44891;50.204;8.132;2023-04-16T16:20:23;98738.53;;;11.10;73.98
59106;BME280;44891;50.204;8.132;2023-04-16T16:24:25;98741.38;;;10.97;74.71
59106;BME280;44891;50.204;8.132;2023-04-16T16:28:29;98740.78;;;10.95;74.94
59106;BME280;44891;50.204;8.132;2023-04-16T16:32:30;98745.72;;;10.91;75.82
59106;BME280;44891;50.204;8.132;2023-04-16T16:36:32;98748.66;;;10.95;75.74
59106;BME280;44891;50.204;8.132;2023-04-16T16:40:36;98752.56;;;10.92;75.49
59106;BME280;44891;50.204;8.132;2023-04-16T16:44:40;98753.81;;;10.78;76.02
59106;BME280;44891;50.204;8.132;2023-04-16T16:48:42;98749.22;;;10.73;76.69
59106;BME280;44891;50.204;8.132;2023-04-16T16:52:44;98747.25;;;10.69;77.08
59106;BME280;44891;50.204;8.132;2023-04-16T16:56:45;98764.75;;;10.63;77.63
59106;BME280;44891;50.204;8.132;2023-04-16T17:00:49;98759.88;;;10.48;78.44
59106;BME280;44891;50.204;8.132;2023-04-16T17:04:50;98767.75;;;10.48;79.23
59106;BME280;44891;50.204;8.132;2023-04-16T17:08:52;98766.94;;;10.48;79.47
59106;BME280;44891;50.204;8.132;2023-04-16T17:12:54;98781.47;;;10.50;79.92
59106;BME280;44891;50.204;8.132;2023-04-16T17:16:58;98770.19;;;10.50;80.12
59106;BME280;44891;50.204;8.132;2023-04-16T17:21:00;98773.22;;;10.47;80.14
59106;BME280;44891;50.204;8.132;2023-04-16T17:25:02;98781.78;;;10.42;80.16
59106;BME280;44891;50.204;8.132;2023-04-16T17:29:04;98782.53;;;10.31;80.78
59106;BME280;44891;50.204;8.132;2023-04-16T17:33:07;98785.75;;;10.33;80.19
59106;BME280;44891;50.204;8.132;2023-04-16T17:37:09;98786.06;;;10.25;81.24
59106;BME280;44891;50.204;8.132;2023-04-16T17:41:11;98795.34;;;10.21;81.65
59106;BME280;44891;50.204;8.132;2023-04-16T17:45:13;98791.78;;;10.15;81.78
59106;BME280;44891;50.204;8.132;2023-04-16T17:49:16;98803.31;;;10.14;82.05
59106;BME280;44891;50.204;8.132;2023-04-16T17:53:18;98801.94;;;10.12;82.71
59106;BME280;44891;50.204;8.132;2023-04-16T17:57:20;98808.63;;;10.07;83.00
59106;BME280;44891;50.204;8.132;2023-04-16T18:01:22;98814.09;;;10.06;83.50
59106;BME280;44891;50.204;8.132;2023-04-16T18:05:25;98818.09;;;10.08;83.59
59106;BME280;44891;50.204;8.132;2023-04-16T18:09:27;98828.25;;;10.05;83.66
59106;BME280;44891;50.204;8.132;2023-04-16T18:13:29;98822.47;;;9.96;84.43
59106;BME280;44891;50.204;8.132;2023-04-16T18:17:30;98828.41;;;9.92;84.04
59106;BME280;44891;50.204;8.132;2023-04-16T18:21:34;98828.41;;;9.92;84.01
59106;BME280;44891;50.204;8.132;2023-04-16T18:25:35;98833.50;;;9.87;84.47
59106;BME280;44891;50.204;8.132;2023-04-16T18:29:37;98835.53;;;9.85;84.08
59106;BME280;44891;50.204;8.132;2023-04-16T18:33:39;98834.13;;;9.82;84.67
59106;BME280;44891;50.204;8.132;2023-04-16T18:37:43;98832.19;;;9.77;85.13
59106;BME280;44891;50.204;8.132;2023-04-16T18:41:45;98839.84;;;9.79;85.35
59106;BME280;44891;50.204;8.132;2023-04-16T18:45:47;98838.44;;;9.76;85.83
59106;BME280;44891;50.204;8.132;2023-04-16T18:49:49;98848.34;;;9.74;85.49
59106;BME280;44891;50.204;8.132;2023-04-16T18:53:53;98851.59;;;9.70;86.27
59106;BME280;44891;50.204;8.132;2023-04-16T18:57:54;98842.81;;;9.64;86.39
59106;BME280;44891;50.204;8.132;2023-04-16T19:01:56;98853.13;;;9.59;86.55
59106;BME280;44891;50.204;8.132;2023-04-16T19:05:58;98858.66;;;9.51;86.94
59106;BME280;44891;50.204;8.132;2023-04-16T19:10:02;98849.97;;;9.50;87.43
59106;BME280;44891;50.204;8.132;2023-04-16T19:14:04;98856.22;;;9.49;87.01
59106;BME280;44891;50.204;8.132;2023-04-16T19:18:07;98861.97;;;9.40;87.60
59106;BME280;44891;50.204;8.132;2023-04-16T19:22:09;98861.53;;;9.43;87.67
59106;BME280;44891;50.204;8.132;2023-04-16T19:26:12;98866.41;;;9.39;87.80
59106;BME280;44891;50.204;8.132;2023-04-16T19:30:14;98867.44;;;9.38;87.09
59106;BME280;44891;50.204;8.132;2023-04-16T19:34:16;98867.38;;;9.45;86.88
59106;BME280;44891;50.204;8.132;2023-04-16T19:38:18;98863.63;;;9.34;87.83
59106;BME280;44891;50.204;8.132;2023-04-16T19:42:21;98861.41;;;9.38;87.76
59106;BME280;44891;50.204;8.132;2023-04-16T19:46:23;98871.06;;;9.37;87.71
59106;BME280;44891;50.204;8.132;2023-04-16T19:50:25;98864.00;;;9.38;87.51
59106;BME280;44891;50.204;8.132;2023-04-16T19:54:26;98867.00;;;9.41;87.60
59106;BME280;44891;50.204;8.132;2023-04-16T19:58:30;98871.22;;;9.42;87.22
59106;BME280;44891;50.204;8.132;2023-04-16T20:02:32;98872.63;;;9.45;86.77
59106;BME280;44891;50.204;8.132;2023-04-16T20:06:34;98870.41;;;9.42;87.32
59106;BME280;44891;50.204;8.132;2023-04-16T20:10:36;98868.00;;;9.40;86.89
59106;BME280;44891;50.204;8.132;2023-04-16T20:14:39;98871.44;;;9.41;86.97
59106;BME280;44891;50.204;8.132;2023-04-16T20:18:41;98872.47;;;9.40;87.18
59106;BME280;44891;50.204;8.132;2023-04-16T20:22:43;98871.06;;;9.37;87.44
59106;BME280;44891;50.204;8.132;2023-04-16T20:26:44;98867.22;;;9.40;87.30
59106;BME280;44891;50.204;8.132;2023-04-16T20:30:48;98880.53;;;9.38;87.21
59106;BME280;44891;50.204;8.132;2023-04-16T20:34:50;98875.50;;;9.37;87.80
59106;BME280;44891;50.204;8.132;2023-04-16T20:38:52;98870.84;;;9.39;87.59
59106;BME280;44891;50.204;8.132;2023-04-16T20:42:54;98873.31;;;9.34;88.12
59106;BME280;44891;50.204;8.132;2023-04-16T20:46:57;98871.50;;;9.34;88.72
59106;BME280;44891;50.204;8.132;2023-04-16T20:50:59;98872.28;;;9.35;87.99
59106;BME280;44891;50.204;8.132;2023-04-16T20:55:01;98863.84;;;9.33;88.56
59106;BME280;44891;50.204;8.132;2023-04-16T20:59:03;98865.28;;;9.29;88.67
59106;BME280;44891;50.204;8.132;2023-04-16T21:03:06;98865.72;;;9.25;88.95
59106;BME280;44891;50.204;8.132;2023-04-16T21:07:08;98865.06;;;9.30;89.10
59106;BME280;44891;50.204;8.132;2023-04-16T21:11:10;98863.47;;;9.29;88.77
59106;BME280;44891;50.204;8.132;2023-04-16T21:15:11;98866.53;;;9.26;89.85
59106;BME280;44891;50.204;8.132;2023-04-16T21:19:15;98863.94;;;9.19;90.30
59106;BME280;44891;50.204;8.132;2023-04-16T21:23:16;98863.34;;;9.17;90.13
59106;BME280;44891;50.204;8.132;2023-04-16T21:27:18;98869.19;;;9.19;90.54
59106;BME280;44891;50.204;8.132;2023-04-16T21:31:20;98866.78;;;9.18;90.69